createdAt,value
2023-04-26T00:00:09.040Z,92.60
2023-04-26T00:02:37.364Z,92.50
2023-04-26T00:05:06.026Z,92.50
2023-04-26T00:07:35.881Z,93.60
2023-04-26T00:10:03.869Z,92.50
2023-04-26T00:12:32.198Z,92.00
2023-04-26T00:15:00.227Z,91.80
2023-04-26T00:17:28.226Z,91.70
2023-04-26T00:19:57.546Z,92.50
2023-04-26T00:22:26.536Z,92.30
2023-04-26T00:24:56.114Z,92.40
2023-04-26T00:27:24.897Z,92.50
2023-04-26T00:29:52.894Z,93.00
2023-04-26T00:32:21.241Z,93.20
2023-04-26T00:34:49.290Z,92.90
2023-04-26T00:37:19.369Z,92.80
2023-04-26T00:39:47.371Z,92.90
2023-04-26T00:42:17.520Z,92.90
2023-04-26T00:44:45.480Z,93.00
2023-04-26T00:47:13.861Z,93.00
2023-04-26T00:49:42.289Z,93.10
2023-04-26T00:52:11.406Z,93.10
2023-04-26T00:54:39.724Z,93.00
2023-04-26T00:57:09.777Z,92.60
2023-04-26T00:59:39.268Z,92.60
2023-04-26T01:02:08.062Z,92.60
2023-04-26T01:04:37.276Z,92.80
2023-04-26T01:07:06.108Z,92.50
2023-04-26T01:09:35.053Z,92.40
2023-04-26T01:12:04.041Z,92.80
2023-04-26T01:14:32.982Z,93.40
2023-04-26T01:17:03.617Z,93.00
2023-04-26T01:19:32.470Z,92.60
2023-04-26T01:22:00.925Z,93.20
2023-04-26T01:24:30.286Z,94.10
2023-04-26T01:26:59.134Z,92.30
2023-04-26T01:29:27.857Z,92.50
2023-04-26T01:31:58.335Z,93.00
2023-04-26T01:34:29.588Z,93.40
2023-04-26T01:36:58.463Z,93.30
2023-04-26T01:39:31.058Z,93.60
2023-04-26T01:41:59.972Z,94.20
2023-04-26T01:44:28.017Z,94.50
2023-04-26T01:46:56.842Z,94.80
2023-04-26T01:49:25.828Z,93.80
2023-04-26T01:51:56.334Z,93.50
2023-04-26T01:54:25.323Z,93.70
2023-04-26T01:56:56.069Z,93.90
2023-04-26T01:59:24.071Z,93.70
2023-04-26T02:01:52.695Z,93.50
2023-04-26T02:04:20.737Z,93.50
2023-04-26T02:06:49.440Z,93.60
2023-04-26T02:09:18.294Z,93.80
2023-04-26T02:11:46.726Z,94.30
2023-04-26T02:14:16.197Z,94.20
2023-04-26T02:16:45.256Z,94.60
2023-04-26T02:19:15.336Z,95.20
2023-04-26T02:21:54.146Z,93.70
2023-04-26T02:24:23.163Z,93.70
2023-04-26T02:26:51.996Z,94.50
2023-04-26T02:29:29.812Z,94.30
2023-04-26T02:32:05.612Z,94.60
2023-04-26T02:34:33.867Z,95.30
2023-04-26T02:37:02.987Z,95.60
2023-04-26T02:39:31.569Z,95.70
2023-04-26T02:42:00.742Z,94.60
2023-04-26T02:44:31.867Z,96.00
2023-04-26T02:47:00.513Z,90.30
2023-04-26T02:49:29.202Z,90.60
2023-04-26T02:51:57.664Z,90.80
2023-04-26T02:54:25.994Z,90.80
2023-04-26T02:56:55.352Z,90.80
2023-04-26T02:59:23.402Z,90.90
2023-04-26T03:01:53.320Z,90.90
2023-04-26T03:04:21.345Z,91.00
2023-04-26T03:06:49.871Z,91.20
2023-04-26T03:09:17.893Z,91.20
2023-04-26T03:11:47.771Z,91.20
2023-04-26T03:14:17.906Z,91.30
2023-04-26T03:16:48.521Z,91.40
2023-04-26T03:19:18.128Z,91.50
2023-04-26T03:21:47.621Z,91.60
2023-04-26T03:24:16.000Z,91.50
2023-04-26T03:26:44.468Z,91.60
2023-04-26T03:29:12.664Z,91.50
2023-04-26T03:31:41.151Z,91.70
2023-04-26T03:34:09.366Z,91.70
2023-04-26T03:36:39.497Z,91.80
2023-04-26T03:39:07.499Z,91.90
2023-04-26T03:41:39.782Z,91.90
2023-04-26T03:44:10.243Z,91.90
2023-04-26T03:46:40.749Z,92.00
2023-04-26T03:49:08.776Z,92.10
2023-04-26T03:51:37.663Z,92.10
2023-04-26T03:54:07.350Z,92.20
2023-04-26T03:56:37.115Z,92.20
2023-04-26T03:59:05.353Z,92.30
2023-04-26T04:01:34.476Z,92.30
2023-04-26T04:04:02.879Z,92.40
2023-04-26T04:06:31.526Z,92.40
2023-04-26T04:08:59.541Z,92.40
2023-04-26T04:11:30.057Z,92.70
2023-04-26T04:13:58.085Z,92.50
2023-04-26T04:16:26.651Z,92.60
2023-04-26T04:18:55.051Z,92.70
2023-04-26T04:21:24.342Z,92.70
2023-04-26T04:23:53.404Z,92.70
2023-04-26T04:26:22.771Z,92.70
2023-04-26T04:28:53.734Z,92.80
2023-04-26T04:31:23.219Z,92.80
2023-04-26T04:33:51.510Z,92.80
2023-04-26T04:36:19.938Z,92.80
2023-04-26T04:38:48.030Z,92.80
2023-04-26T04:41:19.132Z,93.00
2023-04-26T04:43:47.763Z,92.90
2023-04-26T04:46:17.995Z,93.00
2023-04-26T04:48:46.423Z,93.00
2023-04-26T04:51:15.021Z,93.30
2023-04-26T04:53:43.273Z,93.00
2023-04-26T04:56:12.429Z,93.10
2023-04-26T04:58:40.504Z,93.00
2023-04-26T05:01:09.491Z,93.00
2023-04-26T05:03:51.352Z,93.00
2023-04-26T05:06:20.510Z,93.00
2023-04-26T05:08:48.708Z,93.10
2023-04-26T05:11:18.294Z,93.10
2023-04-26T05:13:47.410Z,93.00
2023-04-26T05:16:15.612Z,92.80
2023-04-26T05:18:43.779Z,92.50
2023-04-26T05:21:13.587Z,92.20
2023-04-26T05:23:41.676Z,92.00
2023-04-26T05:26:11.686Z,91.70
2023-04-26T05:28:45.870Z,91.60
2023-04-26T05:31:40.229Z,91.40
2023-04-26T05:34:22.113Z,91.20
2023-04-26T05:36:56.958Z,90.80
2023-04-26T05:39:25.295Z,90.70
2023-04-26T05:41:53.785Z,90.50
2023-04-26T05:44:21.794Z,90.30
2023-04-26T05:46:50.312Z,90.10
2023-04-26T05:49:18.364Z,89.80
2023-04-26T05:51:46.764Z,89.70
2023-04-26T05:54:16.165Z,89.20
2023-04-26T05:56:44.899Z,88.70
2023-04-26T05:59:13.782Z,88.70
2023-04-26T06:01:42.586Z,88.20
2023-04-26T06:04:11.002Z,87.60
2023-04-26T06:07:08.797Z,87.50
2023-04-26T06:09:38.302Z,86.80
2023-04-26T06:12:07.445Z,86.30
2023-04-26T06:14:38.507Z,85.90
2023-04-26T06:17:11.530Z,87.10
2023-04-26T06:19:39.598Z,86.80
2023-04-26T06:22:08.444Z,85.10
2023-04-26T06:24:37.889Z,82.60
2023-04-26T06:27:06.828Z,80.50
2023-04-26T06:29:36.192Z,77.60
2023-04-26T06:32:04.740Z,76.60
2023-04-26T06:34:34.380Z,75.50
2023-04-26T06:37:02.752Z,74.00
2023-04-26T06:39:31.977Z,73.80
2023-04-26T06:42:02.023Z,72.80
2023-04-26T06:44:48.669Z,72.60
2023-04-26T06:47:18.318Z,70.70
2023-04-26T06:49:47.289Z,69.30
2023-04-26T06:52:15.949Z,68.50
2023-04-26T06:54:55.938Z,67.60
2023-04-26T06:57:26.799Z,67.30
2023-04-26T06:59:55.619Z,66.20
2023-04-26T07:02:24.620Z,64.50
2023-04-26T07:04:53.564Z,64.20
2023-04-26T07:07:22.003Z,63.40
2023-04-26T07:09:51.129Z,62.00
2023-04-26T07:12:19.222Z,61.40
2023-04-26T07:14:49.206Z,62.50
2023-04-26T07:17:17.222Z,63.00
2023-04-26T07:19:45.606Z,62.10
2023-04-26T07:22:13.634Z,61.40
2023-04-26T07:24:42.081Z,61.70
2023-04-26T07:27:10.112Z,64.00
2023-04-26T07:29:38.550Z,64.50
2023-04-26T07:32:08.279Z,66.90
2023-04-26T07:34:37.533Z,66.00
2023-04-26T07:37:05.626Z,63.70
2023-04-26T07:39:34.049Z,62.10
2023-04-26T07:42:03.030Z,60.60
2023-04-26T07:44:31.435Z,59.40
2023-04-26T07:46:59.486Z,60.60
2023-04-26T07:49:29.523Z,62.10
2023-04-26T07:51:58.814Z,63.00
2023-04-26T07:54:27.265Z,63.40
2023-04-26T07:56:55.557Z,64.40
2023-04-26T07:59:24.003Z,65.30
2023-04-26T08:01:52.105Z,65.60
2023-04-26T08:04:33.167Z,66.30
2023-04-26T08:07:02.775Z,65.50
2023-04-26T08:09:31.386Z,65.10
2023-04-26T08:11:59.529Z,63.90
2023-04-26T08:14:27.620Z,63.80
2023-04-26T08:16:55.707Z,64.40
2023-04-26T08:19:24.278Z,64.10
2023-04-26T08:21:52.374Z,63.40
2023-04-26T08:24:22.210Z,63.40
2023-04-26T08:26:50.246Z,63.70
2023-04-26T08:29:19.131Z,64.60
2023-04-26T08:31:47.201Z,63.60
2023-04-26T08:34:16.065Z,64.10
2023-04-26T08:36:44.201Z,61.60
2023-04-26T08:39:13.466Z,60.50
2023-04-26T08:41:46.924Z,59.90
2023-04-26T08:44:15.833Z,60.00
2023-04-26T08:46:48.343Z,59.50
2023-04-26T08:49:23.623Z,59.90
2023-04-26T08:51:52.621Z,60.80
2023-04-26T08:54:21.605Z,61.10
2023-04-26T08:56:51.164Z,61.60
2023-04-26T08:59:21.335Z,63.10
2023-04-26T09:01:49.986Z,62.10
2023-04-26T09:04:18.641Z,60.00
2023-04-26T09:06:47.213Z,58.80
2023-04-26T09:09:18.732Z,58.60
2023-04-26T09:11:55.760Z,58.70
2023-04-26T09:14:24.377Z,58.50
2023-04-26T09:16:53.117Z,58.70
2023-04-26T09:19:36.325Z,59.10
2023-04-26T09:22:04.976Z,59.40
2023-04-26T09:24:47.848Z,59.30
2023-04-26T09:27:17.846Z,59.80
2023-04-26T09:29:59.120Z,59.70
2023-04-26T09:32:27.630Z,59.30
2023-04-26T09:34:56.240Z,59.80
2023-04-26T09:37:24.281Z,59.20
2023-04-26T09:39:52.779Z,59.20
2023-04-26T09:42:22.187Z,58.70
2023-04-26T09:44:52.210Z,59.10
2023-04-26T09:47:23.065Z,59.30
2023-04-26T09:49:52.519Z,59.20
2023-04-26T09:52:20.726Z,59.40
2023-04-26T09:54:50.170Z,59.60
2023-04-26T09:57:19.703Z,59.80
2023-04-26T09:59:50.578Z,59.60
2023-04-26T10:02:21.033Z,59.70
2023-04-26T10:04:51.453Z,59.60
2023-04-26T10:07:20.283Z,59.40
2023-04-26T10:09:49.144Z,59.60
2023-04-26T10:12:17.906Z,59.20
2023-04-26T10:14:47.066Z,58.60
2023-04-26T10:17:16.947Z,58.10
2023-04-26T10:19:46.936Z,58.10
2023-04-26T10:22:18.494Z,58.00
2023-04-26T10:24:47.284Z,57.90
2023-04-26T10:27:16.286Z,58.80
2023-04-26T10:30:10.069Z,58.50
2023-04-26T10:32:56.654Z,58.40
2023-04-26T10:35:27.052Z,58.30
2023-04-26T10:38:10.483Z,58.10
2023-04-26T10:40:39.913Z,57.60
2023-04-26T10:43:26.618Z,57.30
2023-04-26T10:45:56.807Z,56.80
2023-04-26T10:48:31.789Z,56.50
2023-04-26T10:51:12.721Z,56.30
2023-04-26T10:53:59.083Z,56.40
2023-04-26T10:56:46.408Z,56.30
2023-04-26T11:01:47.030Z,56.70
2023-04-26T11:04:15.159Z,57.00
2023-04-26T11:06:52.055Z,57.20
2023-04-26T11:09:37.074Z,57.00
2023-04-26T11:12:06.370Z,56.80
2023-04-26T11:14:34.636Z,56.60
2023-04-26T11:17:06.467Z,56.50
2023-04-26T11:19:34.459Z,56.30
2023-04-26T11:22:07.717Z,55.60
2023-04-26T11:24:36.941Z,55.40
2023-04-26T11:27:09.945Z,55.30
2023-04-26T11:29:38.032Z,55.70
2023-04-26T11:32:07.210Z,55.90
2023-04-26T11:34:35.680Z,56.00
2023-04-26T11:37:06.106Z,56.40
2023-04-26T11:39:34.455Z,56.60
2023-04-26T11:42:06.875Z,57.00
2023-04-26T11:44:35.492Z,57.20
2023-04-26T11:47:05.244Z,57.30
2023-04-26T11:49:33.906Z,57.30
2023-04-26T11:52:02.546Z,57.40
2023-04-26T11:54:32.463Z,57.10
2023-04-26T11:57:01.021Z,56.60
2023-04-26T11:59:29.617Z,56.20
2023-04-26T12:01:58.577Z,55.80
2023-04-26T12:04:30.755Z,55.60
2023-04-26T12:06:59.976Z,55.30
2023-04-26T12:09:28.587Z,54.70
2023-04-26T12:12:00.942Z,54.40
2023-04-26T12:14:32.645Z,54.80
2023-04-26T12:17:02.339Z,55.10
2023-04-26T12:19:30.606Z,55.30
2023-04-26T12:21:58.933Z,55.40
2023-04-26T12:24:29.769Z,55.30
2023-04-26T12:27:02.991Z,54.90
2023-04-26T12:29:31.969Z,54.90
2023-04-26T12:32:00.835Z,55.20
2023-04-26T12:34:29.335Z,55.50
2023-04-26T12:36:58.305Z,55.50
2023-04-26T12:39:26.325Z,55.70
2023-04-26T12:41:55.198Z,55.60
2023-04-26T12:44:24.665Z,55.50
2023-04-26T12:46:53.051Z,55.40
2023-04-26T12:49:21.139Z,55.10
2023-04-26T12:51:49.547Z,55.00
2023-04-26T12:54:17.567Z,55.10
2023-04-26T12:56:46.440Z,55.00
2023-04-26T12:59:14.792Z,55.10
2023-04-26T13:01:44.557Z,55.30
2023-04-26T13:04:12.780Z,55.70
2023-04-26T13:06:41.415Z,55.70
2023-04-26T13:09:09.678Z,55.80
2023-04-26T13:11:38.518Z,55.80
2023-04-26T13:14:07.576Z,55.50
2023-04-26T13:16:36.235Z,54.90
2023-04-26T13:19:06.406Z,54.30
2023-04-26T13:21:35.270Z,54.10
2023-04-26T13:24:03.421Z,54.20
2023-04-26T13:26:32.490Z,54.20
2023-04-26T13:29:00.537Z,53.80
2023-04-26T13:31:28.978Z,54.50
2023-04-26T13:33:57.033Z,54.10
2023-04-26T13:36:28.403Z,54.10
2023-04-26T13:38:56.417Z,53.90
2023-04-26T13:41:25.239Z,53.90
2023-04-26T13:43:53.238Z,53.90
2023-04-26T13:46:21.611Z,54.20
2023-04-26T13:48:49.603Z,54.40
2023-04-26T13:51:18.299Z,54.40
2023-04-26T13:53:47.640Z,54.50
2023-04-26T13:56:16.017Z,54.60
2023-04-26T13:58:44.661Z,54.50
2023-04-26T14:01:14.418Z,54.60
2023-04-26T14:03:42.970Z,54.80
2023-04-26T14:06:11.814Z,54.90
2023-04-26T14:08:39.777Z,54.70
2023-04-26T14:11:11.571Z,54.70
2023-04-26T14:13:39.775Z,54.60
2023-04-26T14:16:08.422Z,54.70
2023-04-26T14:18:36.547Z,54.60
2023-04-26T14:21:05.374Z,54.70
2023-04-26T14:23:33.433Z,54.70
2023-04-26T14:26:01.953Z,54.90
2023-04-26T14:28:31.414Z,54.80
2023-04-26T14:31:00.226Z,54.90
2023-04-26T14:33:28.407Z,54.70
2023-04-26T14:35:56.520Z,54.60
2023-04-26T14:38:25.564Z,54.40
2023-04-26T14:40:53.593Z,54.50
2023-04-26T14:43:21.612Z,54.60
2023-04-26T14:45:51.979Z,54.80
2023-04-26T14:48:20.291Z,54.90
2023-04-26T14:50:48.746Z,55.10
2023-04-26T14:53:16.788Z,55.20
2023-04-26T14:55:45.611Z,55.40
2023-04-26T14:58:13.613Z,55.50
2023-04-26T15:00:43.091Z,55.50
2023-04-26T15:03:12.576Z,55.70
2023-04-26T15:05:41.690Z,55.80
2023-04-26T15:08:09.769Z,56.00
2023-04-26T15:10:38.473Z,56.20
2023-04-26T15:13:06.638Z,56.30
2023-04-26T15:15:35.517Z,56.40
2023-04-26T15:18:03.606Z,56.50
2023-04-26T15:20:33.412Z,56.60
2023-04-26T15:23:01.439Z,56.50
2023-04-26T15:25:30.157Z,56.60
2023-04-26T15:27:58.144Z,56.70
2023-04-26T15:30:27.354Z,56.70
2023-04-26T15:32:55.381Z,56.70
2023-04-26T15:35:25.326Z,56.70
2023-04-26T15:37:54.805Z,56.70
2023-04-26T15:40:24.536Z,56.70
2023-04-26T15:42:52.554Z,56.80
2023-04-26T15:45:21.420Z,56.50
2023-04-26T15:47:49.494Z,56.70
2023-04-26T15:50:18.256Z,56.50
2023-04-26T15:52:46.438Z,56.50
2023-04-26T15:55:16.865Z,56.60
2023-04-26T15:57:44.946Z,56.70
2023-04-26T16:00:14.610Z,56.90
2023-04-26T16:02:44.709Z,57.20
2023-04-26T16:05:13.638Z,57.20
2023-04-26T16:07:41.773Z,57.40
2023-04-26T16:10:10.833Z,57.40
2023-04-26T16:12:42.224Z,57.50
2023-04-26T16:15:11.273Z,57.60
2023-04-26T16:17:39.676Z,57.70
2023-04-26T16:20:17.533Z,57.90
2023-04-26T16:23:12.048Z,57.90
2023-04-26T16:25:49.440Z,58.10
2023-04-26T16:28:45.887Z,58.20
2023-04-26T16:31:28.586Z,58.20
2023-04-26T16:34:13.670Z,58.20
2023-04-26T16:36:46.967Z,58.20
2023-04-26T16:39:16.496Z,58.20
2023-04-26T16:41:45.260Z,58.30
2023-04-26T16:44:16.428Z,58.40
2023-04-26T16:46:44.505Z,58.40
2023-04-26T16:49:13.328Z,58.50
2023-04-26T16:51:44.367Z,58.60
2023-04-26T16:54:12.958Z,58.60
2023-04-26T16:56:41.367Z,58.80
2023-04-26T16:59:09.784Z,58.80
2023-04-26T17:01:39.202Z,59.00
2023-04-26T17:04:09.062Z,58.90
2023-04-26T17:06:38.720Z,59.10
2023-04-26T17:09:08.340Z,59.10
2023-04-26T17:11:37.505Z,59.20
2023-04-26T17:14:06.279Z,59.20
2023-04-26T17:16:34.725Z,59.20
2023-04-26T17:19:04.170Z,59.20
2023-04-26T17:21:32.332Z,59.20
2023-04-26T17:24:00.970Z,59.30
2023-04-26T17:26:29.024Z,59.40
2023-04-26T17:28:58.105Z,59.40
2023-04-26T17:31:26.331Z,59.50
2023-04-26T17:33:55.133Z,59.50
2023-04-26T17:36:24.723Z,59.60
2023-04-26T17:38:53.601Z,59.60
2023-04-26T17:41:22.994Z,59.70
2023-04-26T17:43:51.483Z,59.80
2023-04-26T17:46:19.527Z,59.80
2023-04-26T17:48:47.963Z,59.80
2023-04-26T17:51:16.191Z,59.90
2023-04-26T17:53:46.380Z,60.00
2023-04-26T17:56:14.393Z,60.20
2023-04-26T17:58:42.916Z,60.40
2023-04-26T18:01:10.960Z,60.60
2023-04-26T18:03:40.316Z,60.80
2023-04-26T18:06:08.554Z,61.10
2023-04-26T18:08:37.889Z,61.30
2023-04-26T18:11:07.426Z,61.50
2023-04-26T18:13:36.457Z,61.70
2023-04-26T18:16:04.554Z,62.00
2023-04-26T18:18:33.033Z,62.30
2023-04-26T18:21:01.071Z,62.40
2023-04-26T18:23:29.814Z,62.70
2023-04-26T18:25:57.938Z,62.90
2023-04-26T18:28:27.961Z,63.00
2023-04-26T18:30:57.423Z,63.30
2023-04-26T18:33:26.472Z,63.60
2023-04-26T18:35:54.629Z,63.80
2023-04-26T18:38:23.035Z,63.90
2023-04-26T18:40:51.303Z,64.10
2023-04-26T18:43:20.447Z,64.20
2023-04-26T18:45:50.210Z,64.50
2023-04-26T18:48:19.109Z,64.60
2023-04-26T18:50:51.129Z,64.80
2023-04-26T18:53:19.841Z,65.00
2023-04-26T18:55:48.219Z,65.20
2023-04-26T18:58:17.054Z,65.30
2023-04-26T19:00:45.100Z,65.50
2023-04-26T19:03:15.052Z,65.80
2023-04-26T19:05:43.324Z,65.90
2023-04-26T19:08:12.319Z,66.10
2023-04-26T19:10:40.407Z,66.50
2023-04-26T19:13:08.794Z,66.70
2023-04-26T19:15:36.836Z,67.00
2023-04-26T19:18:05.792Z,67.10
2023-04-26T19:20:35.273Z,67.40
2023-04-26T19:23:03.645Z,67.60
2023-04-26T19:25:31.663Z,67.80
2023-04-26T19:28:00.479Z,68.00
2023-04-26T19:30:28.530Z,68.00
2023-04-26T19:32:57.280Z,68.40
2023-04-26T19:35:25.478Z,68.60
2023-04-26T19:37:55.672Z,68.90
2023-04-26T19:40:24.139Z,69.10
2023-04-26T19:42:53.023Z,69.30
2023-04-26T19:45:21.493Z,69.40
2023-04-26T19:47:50.077Z,69.50
2023-04-26T19:50:18.374Z,69.60
2023-04-26T19:52:47.328Z,69.80
2023-04-26T19:55:16.723Z,69.90
2023-04-26T19:57:45.126Z,70.10
2023-04-26T20:00:16.593Z,70.20
2023-04-26T20:02:45.411Z,70.30
2023-04-26T20:05:13.696Z,70.40
2023-04-26T20:07:42.621Z,70.50
2023-04-26T20:10:11.200Z,70.70
2023-04-26T20:12:41.971Z,70.80
2023-04-26T20:15:12.075Z,70.90
2023-04-26T20:17:40.633Z,71.20
2023-04-26T20:20:09.572Z,71.40
2023-04-26T20:22:38.118Z,71.50
2023-04-26T20:25:06.491Z,71.60
2023-04-26T20:27:34.984Z,71.70
2023-04-26T20:30:05.527Z,71.80
2023-04-26T20:32:33.914Z,72.00
2023-04-26T20:35:01.971Z,72.10
2023-04-26T20:37:30.060Z,72.20
2023-04-26T20:39:58.546Z,73.00
2023-04-26T20:42:27.692Z,72.60
2023-04-26T20:44:56.635Z,72.60
2023-04-26T20:47:26.163Z,72.60
2023-04-26T20:49:54.301Z,72.80
2023-04-26T20:52:22.735Z,73.10
2023-04-26T20:54:50.804Z,73.20
2023-04-26T20:57:19.423Z,73.10
2023-04-26T20:59:47.510Z,73.30
2023-04-26T21:02:17.742Z,73.40
2023-04-26T21:04:47.276Z,73.50
2023-04-26T21:07:15.991Z,73.50
2023-04-26T21:09:43.986Z,73.50
2023-04-26T21:12:12.364Z,73.70
2023-04-26T21:14:40.908Z,73.90
2023-04-26T21:17:09.484Z,74.00
2023-04-26T21:19:37.518Z,73.90
2023-04-26T21:22:07.351Z,74.20
2023-04-26T21:24:35.757Z,74.20
2023-04-26T21:27:03.956Z,74.30
2023-04-26T21:29:32.849Z,74.50
2023-04-26T21:32:00.862Z,74.40
2023-04-26T21:34:29.751Z,74.60
2023-04-26T21:36:57.824Z,74.70
2023-04-26T21:39:27.913Z,74.90
2023-04-26T21:41:55.966Z,74.90
2023-04-26T21:44:24.254Z,75.10
2023-04-26T21:46:52.456Z,75.20
2023-04-26T21:49:21.374Z,75.40
2023-04-26T21:51:49.413Z,75.30
2023-04-26T21:54:17.989Z,75.40
2023-04-26T21:56:47.465Z,75.50
2023-04-26T21:59:15.876Z,75.50
2023-04-26T22:01:44.127Z,75.80
2023-04-26T22:04:12.993Z,76.10
2023-04-26T22:06:41.243Z,76.00
2023-04-26T22:09:10.549Z,76.00
2023-04-26T22:11:38.775Z,76.10
2023-04-26T22:14:08.693Z,76.20
2023-04-26T22:16:36.780Z,76.30
2023-04-26T22:19:05.732Z,76.30
2023-04-26T22:21:33.710Z,76.30
2023-04-26T22:24:02.617Z,76.40
2023-04-26T22:26:30.671Z,76.70
2023-04-26T22:28:59.075Z,76.70
2023-04-26T22:31:28.459Z,76.70
2023-04-26T22:33:56.552Z,77.00
2023-04-26T22:36:25.179Z,77.00
2023-04-26T22:38:53.170Z,77.10
2023-04-26T22:41:22.117Z,77.10
2023-04-26T22:43:51.595Z,77.40
2023-04-26T22:46:21.709Z,77.50
2023-04-26T22:48:51.108Z,77.60
2023-04-26T22:51:19.409Z,77.80
2023-04-26T22:53:47.451Z,77.90
2023-04-26T22:56:15.777Z,77.80
2023-04-26T22:58:43.861Z,78.10
2023-04-26T23:01:12.262Z,78.20
2023-04-26T23:03:40.609Z,78.20
2023-04-26T23:06:10.207Z,78.40
2023-04-26T23:08:38.602Z,78.40
2023-04-26T23:11:08.419Z,78.50
2023-04-26T23:13:38.388Z,78.60
2023-04-26T23:16:06.796Z,78.60
2023-04-26T23:18:35.285Z,78.80
2023-04-26T23:21:03.671Z,79.00
2023-04-26T23:23:33.403Z,79.00
2023-04-26T23:26:01.773Z,79.00
2023-04-26T23:28:30.199Z,79.00
2023-04-26T23:30:58.323Z,79.20
2023-04-26T23:33:26.991Z,79.30
2023-04-26T23:35:55.803Z,79.60
2023-04-26T23:38:24.282Z,79.80
2023-04-26T23:40:53.944Z,79.80
2023-04-26T23:43:22.365Z,79.90
2023-04-26T23:45:50.769Z,80.00
2023-04-26T23:48:18.844Z,80.10
2023-04-26T23:50:47.192Z,80.20
2023-04-26T23:53:15.556Z,81.00
2023-04-26T23:55:43.566Z,80.30
2023-04-26T23:58:12.951Z,80.40
